createdAt,value
2019-03-28T00:00:39.931Z,2.33
2019-03-28T00:03:10.320Z,2.90
2019-03-28T00:05:40.590Z,3.40
2019-03-28T00:08:12.619Z,2.70
2019-03-28T00:10:43.885Z,3.20
2019-03-28T00:13:14.001Z,3.23
2019-03-28T00:15:44.461Z,2.10
2019-03-28T00:18:15.851Z,2.60
2019-03-28T00:20:46.444Z,2.93
2019-03-28T00:23:41.951Z,2.60
2019-03-28T00:26:13.796Z,2.23
2019-03-28T00:28:44.117Z,4.03
2019-03-28T00:31:14.737Z,3.60
2019-03-28T00:33:45.311Z,2.33
2019-03-28T00:36:17.111Z,2.87
2019-03-28T00:38:47.641Z,2.80
2019-03-28T00:41:18.094Z,3.47
2019-03-28T00:43:48.225Z,3.43
2019-03-28T00:46:19.413Z,3.20
2019-03-28T00:48:49.921Z,2.47
2019-03-28T00:51:20.185Z,2.60
2019-03-28T00:53:50.734Z,2.97
2019-03-28T00:56:21.340Z,2.83
2019-03-28T00:58:53.218Z,2.73
2019-03-28T01:01:23.817Z,2.60
2019-03-28T01:04:00.764Z,2.53
2019-03-28T01:06:31.182Z,2.63
2019-03-28T01:09:04.121Z,3.87
2019-03-28T01:11:33.604Z,3.13
2019-03-28T01:14:04.090Z,2.40
2019-03-28T01:16:34.588Z,2.67
2019-03-28T01:19:05.702Z,2.93
2019-03-28T01:21:41.689Z,3.23
2019-03-28T01:24:12.175Z,2.60
2019-03-28T01:26:51.881Z,2.10
2019-03-28T01:29:15.425Z,2.30
2019-03-28T01:31:46.739Z,3.73
2019-03-28T01:34:17.643Z,2.50
2019-03-28T01:36:48.588Z,1.70
2019-03-28T01:39:19.120Z,2.53
2019-03-28T01:41:49.216Z,3.20
2019-03-28T01:44:20.052Z,3.60
2019-03-28T01:46:50.321Z,2.60
2019-03-28T01:49:22.332Z,2.20
2019-03-28T01:51:52.818Z,2.60
2019-03-28T01:54:23.345Z,2.40
2019-03-28T01:56:53.601Z,4.13
2019-03-28T01:59:25.019Z,3.30
2019-03-28T02:01:55.209Z,2.77
2019-03-28T02:04:25.714Z,3.10
2019-03-28T02:06:56.219Z,4.63
2019-03-28T02:09:30.401Z,3.73
2019-03-28T02:12:00.609Z,2.53
2019-03-28T02:14:30.937Z,2.70
2019-03-28T02:17:01.406Z,4.07
2019-03-28T02:19:33.318Z,3.97
2019-03-28T02:22:03.567Z,3.37
2019-03-28T02:24:35.079Z,4.97
2019-03-28T02:27:07.841Z,3.50
2019-03-28T02:29:38.051Z,2.57
2019-03-28T02:32:08.555Z,3.00
2019-03-28T02:34:39.240Z,3.27
2019-03-28T02:37:11.119Z,3.03
2019-03-28T02:39:43.148Z,4.10
2019-03-28T02:42:13.846Z,3.33
2019-03-28T02:44:44.565Z,3.23
2019-03-28T02:47:15.630Z,4.10
2019-03-28T02:49:46.442Z,3.40
2019-03-28T02:52:16.429Z,4.03
2019-03-28T02:54:47.093Z,4.13
2019-03-28T02:57:17.513Z,3.00
2019-03-28T02:59:48.102Z,4.90
2019-03-28T03:02:18.409Z,5.20
2019-03-28T03:04:51.656Z,4.27
2019-03-28T03:07:21.927Z,3.80
2019-03-28T03:09:52.345Z,3.90
2019-03-28T03:12:22.570Z,3.57
2019-03-28T03:14:53.209Z,4.40
2019-03-28T03:17:23.454Z,4.90
2019-03-28T03:19:53.912Z,3.83
2019-03-28T03:22:24.744Z,4.83
2019-03-28T03:24:56.110Z,4.37
2019-03-28T03:27:26.993Z,5.13
2019-03-28T03:29:57.077Z,3.97
2019-03-28T03:32:27.372Z,4.23
2019-03-28T03:34:58.211Z,4.13
2019-03-28T03:37:28.169Z,5.27
2019-03-28T03:39:58.419Z,4.90
2019-03-28T03:42:29.362Z,5.37
2019-03-28T03:44:59.593Z,5.50
2019-03-28T03:47:30.353Z,5.63
2019-03-28T03:50:01.339Z,6.87
2019-03-28T03:52:31.971Z,6.67
2019-03-28T03:55:02.245Z,4.70
2019-03-28T03:57:32.798Z,4.57
2019-03-28T04:00:03.948Z,7.40
2019-03-28T04:02:34.618Z,6.20
2019-03-28T04:05:05.497Z,8.50
2019-03-28T04:07:35.808Z,6.80
2019-03-28T04:10:05.973Z,5.70
2019-03-28T04:12:37.631Z,8.80
2019-03-28T04:15:08.002Z,5.43
2019-03-28T04:17:38.506Z,8.53
2019-03-28T04:20:08.655Z,10.50
2019-03-28T04:22:38.681Z,7.03
2019-03-28T04:25:09.387Z,7.13
2019-03-28T04:27:40.241Z,10.83
2019-03-28T04:30:11.169Z,9.30
2019-03-28T04:32:41.647Z,10.53
2019-03-28T04:35:11.905Z,8.77
2019-03-28T04:37:42.684Z,7.40
2019-03-28T04:40:12.829Z,6.83
2019-03-28T04:42:45.652Z,8.37
2019-03-28T04:45:14.661Z,9.97
2019-03-28T04:47:44.691Z,5.83
2019-03-28T04:50:18.357Z,3.23
2019-03-28T04:52:48.947Z,6.77
2019-03-28T04:55:19.357Z,10.37
2019-03-28T04:57:50.082Z,6.00
2019-03-28T05:00:23.172Z,7.13
2019-03-28T05:02:53.401Z,5.37
2019-03-28T05:05:23.800Z,9.23
2019-03-28T05:07:54.402Z,12.43
2019-03-28T05:10:24.684Z,14.07
2019-03-28T05:13:04.806Z,9.03
2019-03-28T05:15:35.451Z,8.60
2019-03-28T05:18:06.430Z,10.80
2019-03-28T05:20:37.220Z,13.43
2019-03-28T05:23:07.467Z,11.40
2019-03-28T05:25:37.686Z,10.63
2019-03-28T05:28:07.776Z,8.27
2019-03-28T05:30:38.164Z,9.80
2019-03-28T05:33:08.460Z,8.93
2019-03-28T05:35:39.782Z,14.27
2019-03-28T05:38:12.251Z,14.87
2019-03-28T05:40:43.712Z,12.60
2019-03-28T05:43:13.772Z,15.37
2019-03-28T05:45:46.255Z,16.53
2019-03-28T05:48:16.860Z,13.73
2019-03-28T05:50:47.409Z,3.77
2019-03-28T05:53:17.473Z,11.77
2019-03-28T05:55:48.264Z,9.97
2019-03-28T05:58:18.756Z,12.03
2019-03-28T06:00:52.628Z,11.70
2019-03-28T06:03:23.667Z,13.17
2019-03-28T06:05:55.302Z,9.43
2019-03-28T06:08:26.372Z,8.73
2019-03-28T06:10:57.599Z,8.10
2019-03-28T06:13:28.149Z,11.47
2019-03-28T06:16:04.401Z,9.90
2019-03-28T06:18:35.359Z,9.03
2019-03-28T06:21:06.239Z,5.20
2019-03-28T06:23:36.678Z,7.10
2019-03-28T06:26:10.041Z,5.17
2019-03-28T06:28:41.676Z,9.20
2019-03-28T06:31:12.706Z,9.40
2019-03-28T06:33:51.627Z,3.20
2019-03-28T06:36:22.075Z,9.37
2019-03-28T06:38:52.234Z,9.37
2019-03-28T06:41:35.629Z,8.47
2019-03-28T06:44:06.211Z,8.33
2019-03-28T06:46:37.275Z,8.90
2019-03-28T06:49:08.424Z,7.33
2019-03-28T06:51:38.910Z,8.37
2019-03-28T06:54:09.576Z,8.23
2019-03-28T06:56:40.254Z,8.60
2019-03-28T06:59:11.149Z,12.17
2019-03-28T07:01:41.632Z,12.93
2019-03-28T07:04:12.151Z,17.83
2019-03-28T07:06:44.982Z,16.07
2019-03-28T07:09:15.427Z,12.30
2019-03-28T07:11:45.939Z,10.63
2019-03-28T07:14:18.685Z,10.70
2019-03-28T07:16:50.586Z,8.80
2019-03-28T07:19:23.476Z,11.80
2019-03-28T07:21:54.275Z,12.47
2019-03-28T07:24:24.621Z,12.67
2019-03-28T07:26:54.739Z,15.60
2019-03-28T07:29:25.700Z,15.77
2019-03-28T07:31:56.418Z,10.67
2019-03-28T07:34:26.737Z,16.10
2019-03-28T07:36:57.390Z,9.27
2019-03-28T07:39:27.619Z,9.67
2019-03-28T07:41:58.586Z,14.80
2019-03-28T07:44:28.677Z,9.37
2019-03-28T07:46:58.973Z,12.67
2019-03-28T07:49:29.194Z,9.13
2019-03-28T07:52:00.081Z,8.43
2019-03-28T07:54:30.149Z,8.87
2019-03-28T07:57:00.462Z,9.53
2019-03-28T07:59:31.394Z,8.60
2019-03-28T08:02:01.758Z,8.73
2019-03-28T08:04:32.172Z,13.37
2019-03-28T08:07:02.913Z,8.80
2019-03-28T08:09:36.847Z,8.37
2019-03-28T08:12:05.372Z,7.30
2019-03-28T08:14:36.127Z,10.73
2019-03-28T08:17:06.520Z,10.97
2019-03-28T08:19:37.611Z,9.67
2019-03-28T08:22:08.821Z,9.17
2019-03-28T08:24:41.360Z,10.13
2019-03-28T08:27:11.642Z,9.13
2019-03-28T08:29:44.240Z,12.40
2019-03-28T08:32:17.484Z,7.00
2019-03-28T08:34:47.782Z,5.43
2019-03-28T08:37:19.149Z,7.13
2019-03-28T08:39:50.481Z,7.77
2019-03-28T08:42:22.823Z,7.10
2019-03-28T08:44:54.137Z,7.80
2019-03-28T08:47:25.031Z,8.90
2019-03-28T08:49:58.647Z,9.77
2019-03-28T08:52:27.716Z,9.47
2019-03-28T08:55:02.352Z,7.83
2019-03-28T08:57:32.827Z,10.07
2019-03-28T09:00:03.460Z,8.67
2019-03-28T09:02:33.793Z,7.00
2019-03-28T09:05:04.291Z,9.87
2019-03-28T09:07:34.822Z,10.87
2019-03-28T09:10:05.156Z,4.90
2019-03-28T09:12:35.838Z,5.90
2019-03-28T09:15:07.552Z,9.70
2019-03-28T09:17:38.532Z,6.40
2019-03-28T09:20:09.298Z,7.57
2019-03-28T09:22:39.792Z,8.60
2019-03-28T09:25:10.142Z,7.60
2019-03-28T09:27:40.821Z,10.30
2019-03-28T09:30:11.439Z,4.47
2019-03-28T09:32:42.385Z,6.17
2019-03-28T09:35:15.786Z,6.47
2019-03-28T09:37:46.182Z,5.87
2019-03-28T09:40:16.306Z,5.03
2019-03-28T09:42:53.148Z,5.87
2019-03-28T09:45:23.580Z,5.60
2019-03-28T09:47:54.291Z,6.93
2019-03-28T09:50:24.557Z,6.00
2019-03-28T09:52:55.047Z,6.33
2019-03-28T09:55:25.293Z,3.43
2019-03-28T09:57:55.701Z,4.90
2019-03-28T10:00:26.120Z,7.70
2019-03-28T10:02:56.642Z,4.50
2019-03-28T10:05:27.748Z,3.57
2019-03-28T10:07:58.146Z,4.33
2019-03-28T10:10:28.193Z,6.03
2019-03-28T10:13:00.432Z,6.90
2019-03-28T10:15:30.794Z,4.53
2019-03-28T10:18:01.328Z,3.97
2019-03-28T10:20:32.056Z,7.50
2019-03-28T10:23:02.550Z,5.17
2019-03-28T10:25:32.867Z,7.50
2019-03-28T10:28:03.467Z,6.83
2019-03-28T10:30:40.169Z,7.13
2019-03-28T10:33:11.387Z,3.77
2019-03-28T10:35:41.774Z,3.57
2019-03-28T10:38:11.994Z,6.20
2019-03-28T10:40:42.549Z,3.60
2019-03-28T10:43:13.881Z,6.57
2019-03-28T10:45:44.345Z,7.40
2019-03-28T10:48:14.619Z,4.53
2019-03-28T10:50:56.755Z,6.70
2019-03-28T10:53:30.112Z,3.93
2019-03-28T10:56:00.183Z,7.63
2019-03-28T10:58:30.379Z,5.87
2019-03-28T11:01:01.296Z,4.03
2019-03-28T11:03:30.575Z,4.70
2019-03-28T11:06:00.961Z,6.50
2019-03-28T11:08:36.689Z,4.47
2019-03-28T11:11:07.348Z,7.00
2019-03-28T11:13:37.904Z,7.03
2019-03-28T11:16:08.381Z,7.80
2019-03-28T11:18:39.655Z,6.03
2019-03-28T11:21:13.600Z,6.47
2019-03-28T11:23:44.433Z,7.37
2019-03-28T11:26:14.849Z,8.10
2019-03-28T11:28:45.438Z,5.93
2019-03-28T11:31:16.036Z,6.97
2019-03-28T11:33:47.552Z,5.33
2019-03-28T11:36:18.366Z,3.40
2019-03-28T11:51:44.208Z,6.60
2019-03-28T11:54:14.516Z,5.97
2019-03-28T11:56:44.335Z,3.73
2019-03-28T11:59:15.600Z,4.00
2019-03-28T12:01:59.133Z,5.07
2019-03-28T12:04:16.771Z,6.40
2019-03-28T12:06:48.985Z,3.30
2019-03-28T12:09:19.399Z,6.20
2019-03-28T12:11:49.200Z,5.23
2019-03-28T12:14:18.968Z,6.53
2019-03-28T12:16:48.793Z,5.13
2019-03-28T12:19:18.653Z,6.40
2019-03-28T12:21:48.428Z,4.13
2019-03-28T12:24:18.182Z,4.03
2019-03-28T12:26:48.193Z,5.07
2019-03-28T12:29:18.075Z,5.13
2019-03-28T12:31:47.924Z,3.73
2019-03-28T12:34:17.645Z,5.77
2019-03-28T12:36:47.523Z,3.50
2019-03-28T12:39:17.247Z,4.07
2019-03-28T12:41:46.877Z,4.60
2019-03-28T12:44:16.581Z,5.37
2019-03-28T12:46:46.267Z,4.57
2019-03-28T12:49:16.054Z,5.13
2019-03-28T12:51:45.840Z,4.87
2019-03-28T12:54:15.564Z,5.17
2019-03-28T12:56:45.220Z,5.70
2019-03-28T12:59:15.103Z,4.43
2019-03-28T13:01:44.854Z,4.93
2019-03-28T13:04:14.555Z,5.43
2019-03-28T13:06:44.494Z,5.43
2019-03-28T13:09:14.366Z,3.67
2019-03-28T13:11:44.066Z,4.20
2019-03-28T13:14:13.834Z,5.33
2019-03-28T13:16:46.560Z,5.23
2019-03-28T13:19:17.581Z,3.80
2019-03-28T13:21:48.110Z,4.37
2019-03-28T13:24:17.718Z,4.17
2019-03-28T13:26:47.443Z,5.30
2019-03-28T13:29:17.139Z,5.20
2019-03-28T13:31:47.053Z,4.77
2019-03-28T13:34:16.898Z,4.83
2019-03-28T13:36:46.647Z,5.03
2019-03-28T13:39:16.317Z,4.53
2019-03-28T13:41:46.193Z,4.13
2019-03-28T13:44:16.105Z,4.60
2019-03-28T13:46:45.866Z,3.77
2019-03-28T13:49:15.885Z,3.70
2019-03-28T13:51:45.887Z,4.33
2019-03-28T13:54:15.634Z,5.30
2019-03-28T13:56:45.273Z,4.10
2019-03-28T13:59:20.955Z,5.23
2019-03-28T14:01:50.794Z,4.67
2019-03-28T14:04:21.654Z,4.57
2019-03-28T14:06:53.139Z,3.57
2019-03-28T14:09:23.494Z,3.63
2019-03-28T14:12:12.536Z,4.23
2019-03-28T14:14:42.579Z,3.20
2019-03-28T14:17:12.687Z,2.60
2019-03-28T14:19:42.783Z,3.07
2019-03-28T14:22:12.806Z,3.20
2019-03-28T14:24:42.814Z,2.80
2019-03-28T14:27:16.226Z,2.60
2019-03-28T14:29:46.384Z,2.13
2019-03-28T14:32:16.505Z,2.13
2019-03-28T14:34:46.935Z,1.37
2019-03-28T14:37:17.279Z,1.80
2019-03-28T14:39:49.230Z,1.73
2019-03-28T14:42:19.920Z,1.30
2019-03-28T14:44:50.349Z,1.80
2019-03-28T14:47:22.408Z,1.30
2019-03-28T14:49:52.579Z,1.27
2019-03-28T14:52:26.004Z,1.20
2019-03-28T14:54:59.940Z,2.63
2019-03-28T14:57:29.697Z,1.60
2019-03-28T14:59:59.988Z,1.20
2019-03-28T15:02:30.125Z,1.23
2019-03-28T15:05:00.439Z,2.03
2019-03-28T15:07:30.522Z,1.83
2019-03-28T15:10:01.956Z,1.40
2019-03-28T15:12:32.437Z,1.40
2019-03-28T15:15:03.167Z,2.87
2019-03-28T15:17:33.301Z,2.53
2019-03-28T15:20:03.339Z,2.37
2019-03-28T15:22:33.660Z,2.13
2019-03-28T15:25:06.629Z,2.73
2019-03-28T15:27:36.673Z,3.00
2019-03-28T15:30:07.963Z,3.60
2019-03-28T15:32:37.955Z,3.60
2019-03-28T15:35:14.443Z,1.87
2019-03-28T15:37:44.527Z,2.40
2019-03-28T15:40:15.004Z,2.97
2019-03-28T15:42:45.039Z,2.17
2019-03-28T15:45:15.969Z,1.60
2019-03-28T15:47:46.086Z,2.60
2019-03-28T15:50:16.230Z,1.40
2019-03-28T15:52:46.398Z,2.90
2019-03-28T15:55:16.610Z,2.30
2019-03-28T15:57:46.825Z,2.73
2019-03-28T16:00:17.863Z,1.87
2019-03-28T16:02:50.019Z,1.73
2019-03-28T16:05:20.401Z,2.60
2019-03-28T16:07:50.525Z,1.90
2019-03-28T16:10:27.151Z,2.47
2019-03-28T16:12:57.227Z,2.30
2019-03-28T16:15:27.429Z,1.37
2019-03-28T16:17:57.873Z,1.60
2019-03-28T16:20:28.366Z,2.20
2019-03-28T16:23:01.568Z,2.93
2019-03-28T16:25:31.744Z,2.83
2019-03-28T16:28:02.198Z,1.30
2019-03-28T16:30:36.454Z,1.40
2019-03-28T16:33:06.751Z,1.50
2019-03-28T16:35:53.751Z,1.57
2019-03-28T16:38:36.974Z,1.57
2019-03-28T16:41:08.920Z,1.60
2019-03-28T16:43:39.698Z,1.50
2019-03-28T16:46:09.976Z,1.63
2019-03-28T16:48:40.211Z,1.60
2019-03-28T16:51:11.455Z,1.93
2019-03-28T16:53:42.164Z,1.60
2019-03-28T16:56:12.354Z,1.90
2019-03-28T16:58:42.961Z,1.50
2019-03-28T17:01:13.672Z,1.40
2019-03-28T17:03:43.789Z,1.63
2019-03-28T17:06:14.161Z,1.50
2019-03-28T17:08:45.664Z,1.77
2019-03-28T17:11:15.958Z,1.60
2019-03-28T17:13:46.410Z,1.80
2019-03-28T17:16:16.856Z,1.70
2019-03-28T17:18:47.084Z,1.53
2019-03-28T17:21:17.149Z,1.93
2019-03-28T17:23:47.197Z,1.47
2019-03-28T17:26:17.603Z,1.70
2019-03-28T17:28:47.761Z,2.10
2019-03-28T17:31:18.861Z,2.00
2019-03-28T17:33:49.346Z,1.80
2019-03-28T17:36:19.499Z,1.90
2019-03-28T17:38:49.642Z,2.27
2019-03-28T17:41:19.992Z,2.10
2019-03-28T17:43:50.357Z,1.90
2019-03-28T17:46:25.211Z,2.07
2019-03-28T17:48:57.592Z,1.83
2019-03-28T17:51:27.313Z,1.63
2019-03-28T17:53:57.526Z,1.30
2019-03-28T17:56:27.999Z,1.50
2019-03-28T17:58:59.650Z,1.53
2019-03-28T18:01:30.523Z,2.40
2019-03-28T18:04:01.230Z,2.60
2019-03-28T18:06:31.647Z,1.97
2019-03-28T18:09:05.231Z,1.50
2019-03-28T18:11:34.680Z,2.50
2019-03-28T18:14:06.274Z,2.10
2019-03-28T18:16:36.457Z,2.17
2019-03-28T18:19:06.657Z,2.00
2019-03-28T18:21:37.085Z,1.90
2019-03-28T18:24:08.553Z,1.80
2019-03-28T18:26:38.904Z,2.20
2019-03-28T18:29:09.638Z,2.03
2019-03-28T18:31:50.929Z,2.40
2019-03-28T18:34:17.794Z,2.30
2019-03-28T18:36:52.952Z,2.70
2019-03-28T18:39:23.894Z,2.97
2019-03-28T18:41:56.709Z,2.57
2019-03-28T18:44:31.197Z,2.93
2019-03-28T18:47:11.353Z,3.03
2019-03-28T18:49:43.277Z,3.00
2019-03-28T18:52:19.818Z,2.80
2019-03-28T18:54:51.382Z,1.97
2019-03-28T18:57:23.778Z,2.20
2019-03-28T18:59:55.994Z,2.37
2019-03-28T19:02:26.267Z,1.90
2019-03-28T19:04:58.796Z,3.10
2019-03-28T19:07:30.393Z,1.80
2019-03-28T19:10:00.884Z,1.93
2019-03-28T19:12:31.758Z,2.13
2019-03-28T19:15:13.605Z,2.20
2019-03-28T19:17:43.990Z,1.70
2019-03-28T19:20:15.730Z,2.10
2019-03-28T19:22:46.087Z,1.87
2019-03-28T19:25:19.314Z,2.20
2019-03-28T19:27:49.992Z,1.50
2019-03-28T19:30:33.150Z,2.23
2019-03-28T19:33:07.110Z,2.20
2019-03-28T19:35:39.619Z,2.10
2019-03-28T19:38:11.619Z,1.83
2019-03-28T19:40:41.999Z,2.33
2019-03-28T19:43:20.342Z,2.23
2019-03-28T19:45:45.192Z,2.33
2019-03-28T19:48:15.668Z,2.37
2019-03-28T19:50:46.263Z,3.00
2019-03-28T19:53:17.828Z,3.30
2019-03-28T19:55:48.640Z,3.80
2019-03-28T19:58:19.242Z,3.67
2019-03-28T20:00:49.622Z,3.70
2019-03-28T20:03:23.066Z,3.73
2019-03-28T20:05:55.137Z,3.93
2019-03-28T20:08:29.238Z,4.20
2019-03-28T20:11:03.849Z,4.60
2019-03-28T20:13:34.477Z,4.33
2019-03-28T20:16:04.864Z,3.60
2019-03-28T20:18:35.878Z,3.10
2019-03-28T20:21:12.898Z,3.47
2019-03-28T20:23:45.719Z,2.97
2019-03-28T20:26:19.445Z,3.10
2019-03-28T20:28:49.633Z,3.20
2019-03-28T20:31:20.021Z,3.17
2019-03-28T20:33:50.213Z,3.30
2019-03-28T20:36:36.751Z,3.13
2019-03-28T20:39:03.753Z,2.90
2019-03-28T20:41:29.081Z,3.03
2019-03-28T20:44:00.688Z,2.77
2019-03-28T20:46:32.527Z,3.10
2019-03-28T20:49:03.326Z,3.20
2019-03-28T20:51:36.197Z,2.80
2019-03-28T20:54:07.844Z,2.77
2019-03-28T20:56:38.296Z,2.17
2019-03-28T20:59:12.080Z,2.90
2019-03-28T21:01:42.865Z,2.47
2019-03-28T21:04:13.905Z,3.57
2019-03-28T21:06:44.829Z,4.80
2019-03-28T21:09:16.851Z,2.47
2019-03-28T21:11:49.190Z,2.50
2019-03-28T21:14:21.340Z,2.57
2019-03-28T21:16:52.122Z,2.57
2019-03-28T21:19:22.597Z,2.17
2019-03-28T21:21:54.878Z,2.40
2019-03-28T21:24:25.846Z,2.53
2019-03-28T21:27:05.132Z,2.20
2019-03-28T21:29:48.277Z,2.63
2019-03-28T21:32:13.043Z,2.53
2019-03-28T21:34:50.729Z,2.50
2019-03-28T21:37:32.836Z,2.40
2019-03-28T21:40:19.592Z,2.63
2019-03-28T21:43:00.418Z,1.93
2019-03-28T21:45:32.683Z,2.07
2019-03-28T21:48:03.102Z,2.37
2019-03-28T21:50:38.238Z,2.53
2019-03-28T21:53:08.653Z,2.30
2019-03-28T21:55:38.842Z,2.30
2019-03-28T21:58:09.234Z,2.47
2019-03-28T22:00:40.193Z,2.57
2019-03-28T22:03:14.211Z,3.00
2019-03-28T22:05:44.469Z,2.67
2019-03-28T22:08:15.004Z,5.40
2019-03-28T22:10:45.617Z,2.47
2019-03-28T22:13:18.671Z,2.53
2019-03-28T22:15:49.058Z,2.40
2019-03-28T22:18:19.550Z,2.63
2019-03-28T22:20:51.838Z,2.83
2019-03-28T22:23:23.433Z,4.23
2019-03-28T22:25:53.738Z,2.83
2019-03-28T22:28:25.738Z,2.83
2019-03-28T22:30:56.119Z,2.70
2019-03-28T22:33:26.484Z,3.33
2019-03-28T22:35:56.825Z,2.93
2019-03-28T22:38:27.455Z,2.37
2019-03-28T22:40:57.652Z,2.50
2019-03-28T22:43:27.948Z,2.30
2019-03-28T22:45:59.328Z,2.60
2019-03-28T22:48:29.534Z,2.70
2019-03-28T22:50:59.824Z,3.13
2019-03-28T22:53:30.271Z,2.60
2019-03-28T22:56:00.412Z,2.27
2019-03-28T22:58:31.181Z,2.27
2019-03-28T23:01:01.419Z,2.20
2019-03-28T23:03:31.659Z,2.63
2019-03-28T23:06:02.162Z,2.50
2019-03-28T23:08:34.837Z,2.60
2019-03-28T23:11:04.128Z,2.73
2019-03-28T23:13:36.435Z,2.20
2019-03-28T23:16:06.615Z,2.70
2019-03-28T23:18:36.911Z,2.13
2019-03-28T23:21:08.529Z,2.73
2019-03-28T23:23:39.103Z,2.47
2019-03-28T23:26:11.384Z,2.23
2019-03-28T23:28:41.873Z,2.30
2019-03-28T23:31:11.863Z,2.27
2019-03-28T23:33:43.146Z,2.37
2019-03-28T23:36:13.343Z,2.33
2019-03-28T23:38:42.544Z,2.20
2019-03-28T23:41:12.653Z,2.57
2019-03-28T23:43:42.898Z,2.10
2019-03-28T23:46:13.126Z,2.20
2019-03-28T23:48:43.627Z,2.00
2019-03-28T23:51:15.079Z,1.97
2019-03-28T23:53:46.763Z,2.20
2019-03-28T23:56:17.161Z,2.37
2019-03-28T23:58:47.700Z,2.27
